Flight Track Log - Related Links

Times and Time Zones

All times are in EDT time to prevent confusion due to time zone crossing. See the BJS444 flight status page for this flight to view local times or setup timezone preferences in your user account.

Time Position Orientation Groundspeed Altitude Reporting Facility
EDT Latitude Longitude Course Direction KTS MPH feet Rate Location/Type
Tue 07:35:38 PM 39.8333 -104.7500 163° South 204 235 7,900  Level Denver TRACON
Tue 07:36:38 PM 39.8167 -104.8333 255° West 249 287 10,000 2,400 Climbing Denver TRACON
Tue 07:37:03 PM 39.8083 -104.8728 255° West 258 297 11,300 4,345 Climbing Denver Center
Tue 07:38:05 PM 39.7375 -104.9164 205° Southwest 289 333 16,300 4,258 Climbing Denver Center
Tue 07:39:07 PM 39.6519 -104.8956 169° South 321 369 20,100 3,145 Climbing Denver Center
Tue 07:40:09 PM 39.5422 -104.8678 169° South 380 437 22,800 2,855 Climbing Denver Center
Tue 07:41:00 PM 39.3695 -104.0421 163° South  Level Estimated
Tue 07:41:11 PM 39.4306 -104.8378 168° South 399 459 26,000  Level Denver Center
Tue 07:42:13 PM 39.3333 -104.7531 146° Southeast 430 495 28,500 2,081 Climbing Denver Center
Tue 07:43:15 PM 39.2417 -104.6308 134° Southeast 471 542 30,300 2,032 Climbing Denver Center
Tue 07:44:17 PM 39.1517 -104.5100 134° Southeast 466 536 32,700 1,839 Climbing Denver Center
Tue 07:45:19 PM 39.0608 -104.3883 134° Southeast 467 537 34,100 1,258 Climbing Denver Center
Tue 07:46:21 PM 38.9508 -104.2419 134° Southeast 482 555 35,300 1,161 Climbing Denver Center
Tue 07:47:23 PM 38.8536 -104.1175 135° Southeast 489 563 36,500 1,113 Climbing Denver Center
Tue 07:48:25 PM 38.7572 -103.9917 134° Southeast 488 562 37,600 968 Climbing Denver Center
Tue 07:49:27 PM 38.6669 -103.8739 134° Southeast 483 556 38,500 816 Climbing Denver Center
Tue 07:50:30 PM 38.5606 -103.7350 134° Southeast 486 559 39,300 720 Climbing Denver Center
Tue 07:51:32 PM 38.4675 -103.6144 135° Southeast 495 570 40,000 774 Climbing Denver Center
Tue 07:52:34 PM 38.3586 -103.4750 135° Southeast 494 568 40,900 484 Climbing Denver Center
Tue 07:53:36 PM 38.2667 -103.3575 135° Southeast 489 563 41,000 48 Climbing Denver Center
Tue 07:54:38 PM 38.1558 -103.2147 135° Southeast 504 580 41,000  Level Denver Center
Tue 07:55:40 PM 38.0658 -103.1003 135° Southeast 504 580 41,000  Level Denver Center
Tue 07:56:42 PM 37.9633 -102.9725 135° Southeast 508 585 41,000  Level Denver Center
Tue 07:57:44 PM 37.8522 -102.8311 135° Southeast 507 583 41,000  Level Denver Center
Tue 07:58:46 PM 37.7550 -102.7100 135° Southeast 510 587 41,000  Level Denver Center
Tue 07:59:48 PM 37.6442 -102.5697 135° Southeast 504 580 41,000  Level Denver Center
Tue 08:00:50 PM 37.5406 -102.4406 135° Southeast 505 581 41,000  Level Denver Center
Tue 08:01:27 PM 37.4772 -102.3625 136° Southeast 501 577 41,000  Level Albuquerque Center
Tue 08:02:29 PM 37.3831 -102.2681 141° Southeast 492 566 41,000  Level Albuquerque Center
Tue 08:03:31 PM 37.2578 -102.1703 148° Southeast 476 548 41,000  Level Albuquerque Center
Tue 08:04:32 PM 37.1461 -102.0828 148° Southeast 471 542 41,000  Level Albuquerque Center
Tue 08:05:34 PM 37.0414 -102.0008 148° Southeast 465 535 41,000  Level Albuquerque Center
Tue 08:06:36 PM 36.9233 -101.8925 144° Southeast 475 547 41,000  Level Albuquerque Center
Tue 08:07:37 PM 36.8325 -101.7761 134° Southeast 488 562 41,000  Level Albuquerque Center
Tue 08:08:39 PM 36.7258 -101.6414 135° Southeast 490 564 41,000  Level Albuquerque Center
Tue 08:09:40 PM 36.6325 -101.5239 135° Southeast 495 570 41,000  Level Albuquerque Center
Tue 08:10:42 PM 36.5242 -101.3856 134° Southeast 499 574 41,000  Level Albuquerque Center
Tue 08:11:44 PM 36.4314 -101.2692 135° Southeast 498 573 41,000  Level Albuquerque Center
Tue 08:12:45 PM 36.3211 -101.1325 135° Southeast 501 577 41,000  Level Albuquerque Center
Tue 08:13:47 PM 36.2278 -101.0136 134° Southeast 510 587 41,000  Level Albuquerque Center
Tue 08:14:49 PM 36.1289 -100.8911 135° Southeast 507 583 41,000  Level Albuquerque Center
Tue 08:15:51 PM 36.0356 -100.7747 135° Southeast 487 560 41,000  Level Albuquerque Center
Tue 08:16:52 PM 35.9381 -100.6536 135° Southeast 490 564 41,000  Level Albuquerque Center
Tue 08:17:54 PM 35.8392 -100.5342 136° Southeast 496 571 41,000  Level Albuquerque Center
Tue 08:18:56 PM 35.7236 -100.3906 135° Southeast 493 567 41,000  Level Albuquerque Center
Tue 08:19:58 PM 35.6244 -100.2686 135° Southeast 499 574 41,000  Level Albuquerque Center
Tue 08:20:59 PM 35.5242 -100.1472 135° Southeast 504 580 41,000  Level Albuquerque Center
Tue 08:22:01 PM 35.4272 -100.0303 135° Southeast 497 572 41,000  Level Albuquerque Center
Tue 08:23:03 PM 35.3322 -99.9161 136° Southeast 485 558 41,000  Level Albuquerque Center
Tue 08:24:04 PM 35.2375 -99.8028 136° Southeast 480 552 41,000  Level Albuquerque Center
Tue 08:25:06 PM 35.1408 -99.6872 136° Southeast 483 556 41,000  Level Albuquerque Center
Tue 08:25:55 PM 35.0433 -99.5767 137° Southeast 485 558 41,000  Level Fort Worth Center
Tue 08:26:55 PM 34.9494 -99.4578 134° Southeast 485 558 41,000  Level Fort Worth Center
Tue 08:27:55 PM 34.8575 -99.3342 132° Southeast 485 558 41,000  Level Fort Worth Center
Tue 08:28:55 PM 34.7633 -99.2106 133° Southeast 485 558 41,000  Level Fort Worth Center
Tue 08:29:55 PM 34.6711 -99.0850 132° Southeast 490 564 41,000  Level Fort Worth Center
Tue 08:30:55 PM 34.5911 -98.9775 132° Southeast 490 564 41,000 -450 Level Fort Worth Center
Tue 08:31:55 PM 34.4989 -98.8522 132° Southeast 495 570 40,100 -900 Descending Fort Worth Center
Tue 08:32:55 PM 34.4042 -98.7250 132° Southeast 501 577 39,200 -850 Descending Fort Worth Center
Tue 08:33:55 PM 34.3033 -98.5925 133° Southeast 501 577 38,400 -1,550 Descending Fort Worth Center
Tue 08:34:55 PM 34.2189 -98.4783 132° Southeast 501 577 36,100 -2,350 Descending Fort Worth Center
Tue 08:35:55 PM 34.1281 -98.3619 133° Southeast 495 570 33,700 -2,600 Descending Fort Worth Center
Tue 08:36:55 PM 34.0411 -98.2381 130° Southeast 490 564 30,900 -3,400 Descending Fort Worth Center
Tue 08:37:55 PM 33.9500 -98.1194 133° Southeast 485 558 26,900 -4,050 Descending Fort Worth Center
Tue 08:38:55 PM 33.8589 -97.9964 132° Southeast 468 539 22,800 -4,000 Descending Fort Worth Center
Tue 08:39:55 PM 33.7842 -97.9008 133° Southeast 438 504 18,900 -3,300 Descending Fort Worth Center
Tue 08:40:55 PM 33.7094 -97.8031 133° Southeast 412 474 16,200 -2,650 Descending Fort Worth Center
Tue 08:41:55 PM 33.6283 -97.6978 133° Southeast 392 451 13,600 -2,250 Descending Fort Worth Center
Tue 08:42:55 PM 33.5514 -97.5978 133° Southeast 392 451 11,700 -1,600 Descending Fort Worth Center
Tue 08:43:55 PM 33.4803 -97.5106 134° Southeast 386 444 10,400 -1,350 Descending Fort Worth Center
Tue 08:44:55 PM 33.4200 -97.4383 135° Southeast 328 377 9,000 -1,400 Descending Fort Worth Center
Tue 08:45:55 PM 33.3697 -97.3711 132° Southeast 289 333 7,600 -1,550 Descending Fort Worth Center
Tue 08:46:55 PM 33.3719 -97.2742 88° East 262 302 5,900 -1,300 Descending Fort Worth Center
Tue 08:47:55 PM 33.3550 -97.1897 103° East 269 310 5,000 -950 Descending Fort Worth Center
Tue 08:48:55 PM 33.3131 -97.1150 124° Southeast 264 304 4,000 -850 Descending Fort Worth Center
Tue 08:49:55 PM 33.2628 -97.0483 132° Southeast 271 312 3,300 -500 Descending Fort Worth Center
Tue 08:50:55 PM 33.2231 -96.9914 130° Southeast 260 299 3,000 -150 Descending Fort Worth Center
Tue 08:51:55 PM 33.1728 -96.9219 131° Southeast 254 292 3,000  Level Fort Worth Center
Tue 08:52:55 PM 33.1306 -96.8603 129° Southeast 249 287 3,000  Level Fort Worth Center
Tue 08:53:55 PM 33.0950 -96.8108 131° Southeast 244 281 3,000  Level Fort Worth Center
Tue 08:54:15 PM 33.0667 -96.7833 141° Southeast 214 246 3,000  Level Dallas / Fort Worth TRACON
Tue 08:55:15 PM 33.0167 -96.7667 164° South 206 237 3,000  Level Dallas / Fort Worth TRACON
Tue 08:56:15 PM 32.9667 -96.7333 151° Southeast 206 237 3,000  Level Dallas / Fort Worth TRACON
Tue 08:57:09 PM 32.9167 -96.7167 164° South 208 239 3,000  Level Dallas / Fort Worth TRACON
Tue 08:58:15 PM 32.8667 -96.6833 151° Southeast 184 212 3,000  Level Dallas / Fort Worth TRACON
Tue 08:59:10 PM 32.8333 -96.7000 203° Southwest 183 211 3,000  Level Dallas / Fort Worth TRACON
Tue 09:00:16 PM 32.8333 -96.7667 270° West 155 178 3,000  Level Dallas / Fort Worth TRACON
Tue 09:01:10 PM 32.8500 -96.7833 320° Northwest 148 170 3,000 -421 Level Dallas / Fort Worth TRACON
Tue 09:02:10 PM 32.9000 -96.8000 344° North 142 163 2,200 -744 Descending Dallas / Fort Worth TRACON
Tue 09:03:11 PM 32.9167 -96.8167 320° Northwest 108 124 1,500 -689 Descending Dallas / Fort Worth TRACON

Login

Don't have an account? Register now (free) for customized features, flight alerts, and more!